Time;durP1;ratioP1;P1;durP2;ratioP2;P2;SDS_P1;SDS_P2;PMS_P1;PMS_P2;Temp;Humidity;BMP_temperature;BMP_pressure;BME280_temperature;BME280_humidity;BME280_pressure;Samples;Min_cycle;Max_cycle;Signal;HPM_P1;HPM_P2
2022/01/21 00:00:44;;;;;;;6.80;1.65;;;0.90;99.90;;;;;;5099458;28;20067;-72
2022/01/21 00:03:10;;;;;;;8.15;1.67;;;0.90;99.90;;;;;;5100472;28;20040;-72
2022/01/21 00:05:36;;;;;;;7.97;1.40;;;0.80;99.90;;;;;;5099442;28;20076;-71
2022/01/21 00:08:01;;;;;;;4.53;1.10;;;0.80;99.90;;;;;;5100264;28;20052;-71
2022/01/21 00:10:27;;;;;;;11.82;1.80;;;0.70;99.90;;;;;;5099271;28;20047;-72
2022/01/21 00:12:54;;;;;;;9.60;2.22;;;0.70;99.90;;;;;;5099830;28;20122;-73
2022/01/21 00:15:19;;;;;;;6.15;2.15;;;0.70;99.90;;;;;;5099581;28;20063;-72
2022/01/21 00:17:46;;;;;;;6.65;2.03;;;0.70;99.90;;;;;;5099209;28;20043;-73
2022/01/21 00:31:18;;;;;;;6.35;1.83;;;0.70;99.90;;;;;;5110251;28;20410;-70
2022/01/21 00:33:43;;;;;;;6.78;1.90;;;0.70;99.90;;;;;;5099829;28;20039;-72
2022/01/21 00:36:09;;;;;;;7.03;1.80;;;0.70;99.90;;;;;;5099025;28;20048;-72
2022/01/21 00:38:35;;;;;;;8.55;2.30;;;0.70;99.90;;;;;;5099588;28;20047;-72
2022/01/21 00:41:04;;;;;;;12.13;1.90;;;0.60;99.90;;;;;;5098977;28;20131;-72
2022/01/21 00:43:43;;;;;;;8.68;1.92;;;0.90;99.90;;;;;;5098911;28;20081;-72
2022/01/21 00:46:09;;;;;;;9.82;1.95;;;0.60;99.90;;;;;;5098922;28;20052;-72
2022/01/21 00:48:35;;;;;;;6.90;2.00;;;0.60;99.90;;;;;;5098417;28;20043;-71
2022/01/21 00:51:01;;;;;;;11.45;2.33;;;1.80;99.90;;;;;;5099725;28;20060;-70
2022/01/21 00:53:26;;;;;;;10.38;2.08;;;0.70;99.90;;;;;;5098791;28;20048;-71
2022/01/21 00:55:52;;;;;;;15.75;2.03;;;0.70;99.90;;;;;;5099084;28;20103;-71
2022/01/21 00:58:18;;;;;;;11.20;2.85;;;0.80;99.90;;;;;;5098052;28;20040;-71
2022/01/21 01:00:43;;;;;;;10.75;2.50;;;0.80;99.90;;;;;;5097074;28;20040;-71
2022/01/21 01:03:10;;;;;;;8.75;1.80;;;0.90;99.90;;;;;;5099476;28;20071;-71
2022/01/21 01:05:36;;;;;;;14.90;2.90;;;0.90;99.90;;;;;;5098349;28;20052;-71
2022/01/21 01:08:03;;;;;;;7.35;2.30;;;0.90;99.90;;;;;;5099561;28;20040;-71
2022/01/21 01:21:18;;;;;;;10.35;2.15;;;0.90;99.90;;;;;;5099346;28;20048;-72
2022/01/21 01:29:12;;;;;;;8.23;2.00;;;1.00;99.90;;;;;;5114493;28;20067;-72
2022/01/21 01:31:39;;;;;;;12.52;2.50;;;1.00;99.90;;;;;;5115636;28;20419;-71
2022/01/21 01:34:04;;;;;;;14.13;2.20;;;1.10;99.90;;;;;;5099186;28;20052;-73
2022/01/21 01:36:30;;;;;;;9.40;1.92;;;1.10;99.90;;;;;;5099019;28;20113;-72
2022/01/21 01:41:47;;;;;;;8.73;1.83;;;1.10;99.90;;;;;;5099238;28;20040;-74
2022/01/21 01:49:42;;;;;;;13.35;1.85;;;1.10;99.90;;;;;;5098908;28;20044;-71
2022/01/21 01:52:13;;;;;;;6.72;1.45;;;1.10;99.90;;;;;;5099230;28;20047;-71
2022/01/21 01:54:45;;;;;;;6.60;1.65;;;1.20;99.90;;;;;;5102979;28;20071;-71
2022/01/21 01:57:11;;;;;;;7.47;1.73;;;1.20;99.90;;;;;;5101880;28;20044;-71
2022/01/21 01:59:37;;;;;;;5.93;1.30;;;1.20;99.90;;;;;;5102892;28;20111;-72
2022/01/21 02:02:09;;;;;;;6.05;1.40;;;1.20;99.90;;;;;;5101896;28;20043;-72
2022/01/21 02:04:35;;;;;;;10.75;1.80;;;1.20;99.90;;;;;;5100039;28;20040;-72
2022/01/21 02:07:02;;;;;;;9.65;2.47;;;1.20;99.90;;;;;;5102322;28;20046;-71
2022/01/21 02:09:29;;;;;;;9.48;1.88;;;1.20;99.90;;;;;;5101618;28;20062;-71
2022/01/21 02:11:55;;;;;;;10.25;2.03;;;1.20;99.90;;;;;;5102877;28;20044;-72
2022/01/21 02:14:26;;;;;;;7.22;2.70;;;1.10;99.90;;;;;;5101189;28;20035;-73
2022/01/21 02:22:04;;;;;;;7.10;2.00;;;1.10;99.90;;;;;;5101637;28;20052;-72
2022/01/21 02:24:45;;;;;;;8.38;1.80;;;1.10;99.90;;;;;;5101164;28;20050;-73
2022/01/21 02:27:11;;;;;;;11.35;2.75;;;1.10;99.90;;;;;;5101233;28;20047;-73
2022/01/21 02:29:45;;;;;;;7.88;2.10;;;1.10;99.90;;;;;;5120655;28;20099;-73
2022/01/21 02:32:11;;;;;;;10.23;2.22;;;1.10;99.90;;;;;;5114370;28;20052;-72
2022/01/21 02:34:38;;;;;;;10.77;2.33;;;1.00;99.90;;;;;;5101309;28;20071;-73
2022/01/21 02:37:04;;;;;;;8.77;2.10;;;0.90;99.90;;;;;;5102075;28;20099;-72
2022/01/21 02:39:30;;;;;;;8.25;1.67;;;0.90;99.90;;;;;;5101119;28;20044;-73
2022/01/21 02:41:55;;;;;;;8.63;2.15;;;0.90;99.90;;;;;;5100030;28;20044;-73
2022/01/21 02:44:22;;;;;;;7.50;1.50;;;0.90;99.90;;;;;;5100704;28;20040;-74
2022/01/21 02:46:55;;;;;;;6.30;1.33;;;0.80;99.90;;;;;;5101835;28;20128;-73
2022/01/21 02:49:21;;;;;;;12.68;2.13;;;0.90;99.90;;;;;;5101574;28;20123;-71
2022/01/21 02:51:46;;;;;;;7.70;1.70;;;0.90;99.90;;;;;;5101037;28;20048;-71
2022/01/21 02:54:12;;;;;;;9.30;1.90;;;0.90;99.90;;;;;;5101589;28;20043;-72
2022/01/21 02:56:40;;;;;;;6.97;2.15;;;1.00;99.90;;;;;;5100617;28;20048;-73
2022/01/21 02:59:07;;;;;;;7.97;1.60;;;0.90;99.90;;;;;;5101806;28;20050;-72
2022/01/21 03:01:35;;;;;;;5.40;1.00;;;1.00;99.90;;;;;;5100831;28;20067;-72
2022/01/21 03:04:03;;;;;;;6.88;1.38;;;1.00;99.90;;;;;;5100167;28;20054;-72
2022/01/21 03:06:30;;;;;;;3.35;1.55;;;1.10;99.90;;;;;;5101166;28;20040;-71
2022/01/21 03:08:57;;;;;;;5.10;1.35;;;1.10;99.90;;;;;;5100658;28;20071;-72
2022/01/21 03:11:24;;;;;;;8.55;1.83;;;1.10;99.90;;;;;;5101407;28;20056;-72
2022/01/21 03:13:50;;;;;;;12.25;1.55;;;1.10;99.90;;;;;;5100307;28;20071;-73
2022/01/21 03:16:17;;;;;;;7.95;1.88;;;1.00;99.90;;;;;;5100883;28;20051;-72
2022/01/21 03:18:43;;;;;;;5.72;1.13;;;1.00;99.90;;;;;;5100058;28;20117;-72
2022/01/21 03:21:15;;;;;;;4.43;1.05;;;1.00;99.90;;;;;;5100970;28;20043;-72
2022/01/21 03:23:46;;;;;;;6.07;1.10;;;1.20;99.90;;;;;;5101003;28;20048;-72
2022/01/21 03:26:19;;;;;;;8.75;1.63;;;1.10;99.90;;;;;;5100349;28;20446;-73
2022/01/21 03:28:47;;;;;;;8.40;1.30;;;1.00;99.90;;;;;;5112470;28;20054;-73
2022/01/21 03:31:13;;;;;;;4.78;1.15;;;1.40;99.90;;;;;;5120392;28;20566;-73
2022/01/21 03:33:39;;;;;;;6.53;1.30;;;1.40;99.90;;;;;;5101308;28;20059;-72
2022/01/21 03:36:06;;;;;;;2.22;1.20;;;1.10;99.90;;;;;;5100200;28;20055;-73
2022/01/21 03:38:33;;;;;;;4.47;1.10;;;1.10;99.90;;;;;;5099018;28;20061;-72
2022/01/21 03:40:59;;;;;;;6.13;1.20;;;1.10;99.90;;;;;;5100728;28;20047;-72
2022/01/21 03:43:25;;;;;;;9.60;1.20;;;1.10;99.90;;;;;;5099813;28;20044;-73
2022/01/21 03:45:51;;;;;;;5.70;1.10;;;1.10;99.90;;;;;;5100225;28;20081;-73
2022/01/21 03:48:18;;;;;;;9.25;1.27;;;1.10;99.90;;;;;;5100132;28;20079;-72
2022/01/21 03:50:45;;;;;;;4.07;0.80;;;1.00;99.90;;;;;;5100757;28;20040;-72
2022/01/21 03:53:11;;;;;;;5.05;1.45;;;1.30;99.90;;;;;;5099835;28;20054;-73
2022/01/21 03:55:38;;;;;;;6.00;1.15;;;1.10;99.90;;;;;;5100001;28;20139;-73
2022/01/21 03:58:05;;;;;;;7.50;1.40;;;1.10;99.90;;;;;;5099824;28;20055;-73
2022/01/21 04:00:34;;;;;;;6.55;1.70;;;1.10;99.90;;;;;;5099264;28;20035;-74
2022/01/21 04:03:00;;;;;;;5.30;0.90;;;1.20;99.90;;;;;;5100349;28;20047;-72
2022/01/21 04:05:27;;;;;;;6.85;1.02;;;1.20;99.90;;;;;;5099364;28;20040;-72
2022/01/21 04:07:53;;;;;;;7.90;1.13;;;1.20;99.90;;;;;;5100809;28;20036;-72
2022/01/21 04:10:41;;;;;;;4.35;1.38;;;1.20;99.90;;;;;;5099533;28;20189;-73
2022/01/21 04:13:15;;;;;;;5.53;1.30;;;1.20;99.90;;;;;;5099489;28;20139;-73
2022/01/21 04:15:47;;;;;;;4.75;1.42;;;1.20;99.90;;;;;;5099025;28;20040;-73
2022/01/21 04:18:16;;;;;;;6.47;1.25;;;1.20;99.90;;;;;;5099102;28;20058;-73
2022/01/21 04:20:44;;;;;;;8.48;1.65;;;1.20;99.90;;;;;;5100203;28;20040;-73
2022/01/21 04:23:11;;;;;;;8.68;1.20;;;1.10;99.90;;;;;;5099455;28;20096;-73
2022/01/21 04:25:37;;;;;;;8.40;1.63;;;1.10;99.90;;;;;;5099635;28;20043;-74
2022/01/21 04:28:03;;;;;;;4.72;1.10;;;1.10;99.90;;;;;;5104750;28;20040;-74
2022/01/21 04:30:29;;;;;;;8.80;1.40;;;1.00;99.90;;;;;;5119231;28;20065;-74
2022/01/21 04:32:55;;;;;;;4.57;1.20;;;0.90;99.90;;;;;;5105912;28;20495;-74
2022/01/21 04:35:21;;;;;;;9.65;1.20;;;0.90;99.90;;;;;;5098473;28;20130;-73
2022/01/21 04:37:54;;;;;;;5.53;0.98;;;1.00;99.90;;;;;;5099992;28;20032;-73
2022/01/21 04:40:22;;;;;;;9.00;1.52;;;1.00;99.90;;;;;;5099205;28;20091;-73
2022/01/21 04:48:17;;;;;;;4.72;1.10;;;0.90;99.90;;;;;;5098552;28;20044;-74
2022/01/21 04:50:55;;;;;;;3.17;1.23;;;0.90;99.90;;;;;;5099759;28;20047;-73
2022/01/21 04:53:22;;;;;;;6.45;2.42;;;0.90;99.90;;;;;;5098941;28;20051;-72
2022/01/21 04:55:48;;;;;;;6.25;0.88;;;0.90;99.90;;;;;;5098826;28;20055;-72
2022/01/21 04:58:14;;;;;;;7.07;1.42;;;0.90;99.90;;;;;;5099458;28;20127;-73
2022/01/21 05:00:40;;;;;;;4.55;0.93;;;1.00;99.90;;;;;;5098332;28;20101;-73
2022/01/21 05:03:05;;;;;;;5.18;1.20;;;1.00;99.90;;;;;;5099473;28;20044;-73
2022/01/21 05:05:32;;;;;;;4.32;1.40;;;1.00;99.90;;;;;;5098320;28;20408;-73
2022/01/21 05:08:01;;;;;;;9.38;1.45;;;1.10;99.90;;;;;;5099574;28;20044;-73
2022/01/21 05:10:27;;;;;;;3.58;1.17;;;1.10;99.90;;;;;;5098666;28;20516;-74
2022/01/21 05:12:54;;;;;;;3.50;1.95;;;2.40;99.90;;;;;;5098451;28;20052;-73
2022/01/21 05:15:45;;;;;;;4.70;1.00;;;1.00;99.90;;;;;;5098424;28;20105;-73
2022/01/21 05:18:06;;;;;;;6.70;0.95;;;1.00;99.90;;;;;;5098264;28;20506;-73
2022/01/21 05:20:31;;;;;;;6.63;1.20;;;1.70;99.90;;;;;;5099508;28;20052;-73
2022/01/21 05:22:57;;;;;;;5.78;1.20;;;1.00;99.90;;;;;;5098545;28;20063;-72
2022/01/21 05:25:23;;;;;;;7.18;1.17;;;2.30;99.90;;;;;;5099289;28;20058;-73
2022/01/21 05:27:55;;;;;;;7.97;2.10;;;0.90;99.90;;;;;;5104355;28;20051;-72
2022/01/21 05:30:21;;;;;;;7.03;2.15;;;0.90;99.90;;;;;;5123013;28;20063;-73
2022/01/21 05:32:46;;;;;;;8.00;1.50;;;0.80;99.90;;;;;;5110870;28;20067;-74
2022/01/21 05:35:13;;;;;;;6.85;1.83;;;0.70;99.90;;;;;;5102411;28;20040;-73
2022/01/21 05:37:39;;;;;;;8.38;1.60;;;0.70;99.90;;;;;;5103134;28;20048;-73
2022/01/21 05:40:09;;;;;;;4.55;1.48;;;0.70;99.90;;;;;;5102500;28;20048;-72
2022/01/21 05:42:36;;;;;;;11.68;2.05;;;0.70;99.90;;;;;;5103117;28;20090;-71
2022/01/21 05:47:31;;;;;;;7.30;1.83;;;0.70;99.90;;;;;;5102245;28;20040;-73
2022/01/21 05:49:56;;;;;;;4.15;1.10;;;0.70;99.90;;;;;;5102589;28;20078;-73
2022/01/21 05:52:30;;;;;;;13.98;2.08;;;0.70;99.90;;;;;;5101827;28;20052;-73
2022/01/21 05:54:56;;;;;;;9.27;1.95;;;0.70;99.90;;;;;;5102893;28;20051;-72
2022/01/21 05:57:21;;;;;;;8.40;2.67;;;0.70;99.90;;;;;;5102124;28;20063;-72
2022/01/21 05:59:49;;;;;;;5.88;1.40;;;0.80;99.90;;;;;;5102596;28;20107;-72
2022/01/21 06:02:15;;;;;;;8.80;1.52;;;0.80;99.90;;;;;;5100957;28;20075;-72
2022/01/21 06:04:43;;;;;;;7.57;1.70;;;0.90;99.90;;;;;;5101694;28;20048;-73
2022/01/21 06:07:09;;;;;;;6.43;2.25;;;0.70;99.90;;;;;;5102903;28;20103;-72
2022/01/21 06:09:37;;;;;;;4.50;1.13;;;0.80;99.90;;;;;;5101892;28;20435;-73
2022/01/21 06:12:04;;;;;;;5.43;1.33;;;0.80;99.90;;;;;;5102816;28;20048;-72
2022/01/21 06:14:30;;;;;;;7.47;2.05;;;0.80;99.90;;;;;;5100731;28;20042;-71
2022/01/21 06:16:56;;;;;;;7.60;1.55;;;0.80;99.90;;;;;;5102177;28;20512;-73
2022/01/21 06:19:21;;;;;;;5.90;1.60;;;0.80;99.90;;;;;;5100992;28;20044;-72
2022/01/21 06:21:47;;;;;;;11.23;2.33;;;0.80;99.90;;;;;;5101528;28;20056;-72
2022/01/21 06:24:13;;;;;;;9.48;1.60;;;0.80;99.90;;;;;;5102219;28;20083;-73
2022/01/21 06:26:39;;;;;;;6.10;1.42;;;0.80;99.90;;;;;;5101493;28;20056;-73
2022/01/21 06:29:04;;;;;;;7.60;1.70;;;0.80;99.90;;;;;;5115579;28;20601;-72
2022/01/21 06:31:31;;;;;;;8.75;1.80;;;0.80;99.90;;;;;;5119457;27;20051;-72
2022/01/21 06:33:57;;;;;;;12.88;2.08;;;0.80;99.90;;;;;;5100379;28;20056;-71
2022/01/21 06:36:23;;;;;;;8.07;1.55;;;0.80;99.90;;;;;;5101646;28;20055;-73
2022/01/21 06:38:48;;;;;;;7.20;2.00;;;1.00;99.90;;;;;;5100448;28;20047;-72
2022/01/21 06:41:14;;;;;;;6.22;1.95;;;1.10;99.90;;;;;;5101914;28;20044;-74
2022/01/21 06:43:40;;;;;;;7.95;1.60;;;0.80;99.90;;;;;;5100918;28;20044;-72
2022/01/21 06:46:07;;;;;;;8.88;1.67;;;0.80;99.90;;;;;;5101439;28;20050;-72
2022/01/21 06:48:33;;;;;;;16.08;2.40;;;0.80;99.90;;;;;;5099442;28;20377;-71
2022/01/21 06:50:59;;;;;;;6.38;1.50;;;0.80;99.90;;;;;;5101979;28;20040;-72
2022/01/21 06:53:24;;;;;;;9.48;1.30;;;1.10;99.90;;;;;;5101184;28;20059;-72
2022/01/21 06:55:50;;;;;;;7.22;1.60;;;0.80;99.90;;;;;;5100888;28;20464;-73
2022/01/21 06:58:16;;;;;;;9.90;1.85;;;0.90;99.90;;;;;;5101562;28;20093;-72
2022/01/21 07:00:42;;;;;;;8.25;1.70;;;0.90;99.90;;;;;;5100788;28;20044;-73
2022/01/21 07:03:08;;;;;;;8.13;1.83;;;1.00;99.90;;;;;;5101825;28;20040;-72
2022/01/21 07:05:33;;;;;;;11.07;2.92;;;1.00;99.90;;;;;;5100414;28;20048;-71
2022/01/21 07:08:01;;;;;;;5.13;1.60;;;1.00;99.90;;;;;;5101080;28;20129;-71
2022/01/21 07:10:29;;;;;;;7.78;1.70;;;1.00;99.90;;;;;;5101129;28;20452;-71
2022/01/21 07:12:55;;;;;;;4.63;1.17;;;1.00;99.90;;;;;;5100723;28;20605;-71
2022/01/21 07:15:21;;;;;;;6.93;1.20;;;1.10;99.90;;;;;;5100938;28;20123;-72
2022/01/21 07:17:53;;;;;;;5.15;1.77;;;1.00;99.90;;;;;;5100337;28;20051;-72
2022/01/21 07:20:20;;;;;;;6.05;2.45;;;1.00;99.90;;;;;;5101573;28;20051;-73
2022/01/21 07:22:46;;;;;;;5.88;1.88;;;1.00;99.90;;;;;;5100291;28;20062;-72
2022/01/21 07:25:13;;;;;;;4.50;1.40;;;1.00;99.90;;;;;;5101390;28;20499;-72
2022/01/21 07:27:39;;;;;;;8.00;1.95;;;1.00;99.90;;;;;;5102281;28;20055;-73
2022/01/21 07:30:06;;;;;;;6.88;1.20;;;0.90;99.90;;;;;;5120837;28;20039;-73
2022/01/21 07:32:31;;;;;;;5.93;1.60;;;0.90;99.90;;;;;;5110454;28;20066;-73
2022/01/21 07:34:57;;;;;;;6.65;1.75;;;0.90;99.90;;;;;;5099612;28;20052;-72
2022/01/21 07:37:23;;;;;;;7.65;1.50;;;0.90;99.90;;;;;;5100671;28;20047;-73
2022/01/21 07:39:49;;;;;;;11.43;2.35;;;0.90;99.90;;;;;;5099926;28;20056;-73
2022/01/21 07:42:15;;;;;;;5.60;1.10;;;0.90;99.90;;;;;;5100781;28;20055;-73
2022/01/21 07:44:41;;;;;;;9.27;1.77;;;0.90;99.90;;;;;;5099114;28;20098;-73
2022/01/21 07:47:06;;;;;;;8.90;2.35;;;0.90;99.90;;;;;;5100274;28;20036;-74
2022/01/21 07:49:32;;;;;;;4.63;1.48;;;0.90;99.90;;;;;;5100547;28;20048;-74
2022/01/21 07:51:58;;;;;;;9.93;2.08;;;0.90;99.90;;;;;;5099668;28;20051;-74
2022/01/21 07:54:24;;;;;;;5.82;2.28;;;0.90;99.90;;;;;;5100733;28;20511;-74
2022/01/21 07:56:50;;;;;;;6.57;1.50;;;0.80;99.90;;;;;;5099578;28;20036;-73
2022/01/21 07:59:16;;;;;;;10.88;2.03;;;0.90;99.90;;;;;;5100789;28;20108;-74
2022/01/21 08:01:43;;;;;;;13.75;2.13;;;0.90;99.90;;;;;;5100032;28;20044;-74
2022/01/21 08:04:10;;;;;;;7.22;1.55;;;0.90;99.90;;;;;;5100004;28;20051;-74
2022/01/21 08:06:36;;;;;;;11.68;1.65;;;0.90;99.90;;;;;;5100398;28;20052;-73
2022/01/21 08:09:03;;;;;;;5.35;1.35;;;0.90;99.90;;;;;;5099211;28;20125;-72
2022/01/21 08:11:29;;;;;;;5.32;1.50;;;1.00;99.90;;;;;;5100261;28;20082;-73
2022/01/21 08:13:55;;;;;;;6.70;1.45;;;1.00;99.90;;;;;;5099346;28;20036;-74
2022/01/21 08:16:21;;;;;;;8.88;1.73;;;1.00;99.90;;;;;;5100012;28;20126;-73
2022/01/21 08:18:48;;;;;;;4.68;1.50;;;1.00;99.90;;;;;;5099416;28;20040;-73
2022/01/21 08:21:18;;;;;;;6.43;1.60;;;1.00;99.90;;;;;;5099258;28;20055;-75
2022/01/21 08:23:49;;;;;;;6.10;1.70;;;1.00;99.90;;;;;;5086269;28;20063;-73
2022/01/21 08:26:17;;;;;;;5.95;1.70;;;1.10;99.90;;;;;;5089470;28;20050;-73
2022/01/21 08:28:43;;;;;;;4.93;2.05;;;1.10;99.90;;;;;;5102681;28;20047;-75
2022/01/21 08:31:09;;;;;;;11.43;2.55;;;1.20;99.90;;;;;;5098411;28;20058;-74
2022/01/21 08:33:35;;;;;;;6.72;1.40;;;1.20;99.90;;;;;;5099422;28;20052;-74
2022/01/21 08:36:00;;;;;;;8.82;1.63;;;1.30;99.90;;;;;;5097515;28;20051;-75
2022/01/21 08:38:26;;;;;;;6.43;1.85;;;1.40;99.90;;;;;;5098753;28;20040;-75
2022/01/21 08:40:52;;;;;;;7.47;1.98;;;1.30;99.90;;;;;;5099441;28;20040;-74
2022/01/21 08:43:17;;;;;;;8.18;1.70;;;1.40;99.90;;;;;;5094087;28;20032;-74
2022/01/21 08:45:43;;;;;;;12.05;2.17;;;1.40;99.90;;;;;;5067517;28;20095;-72
2022/01/21 08:48:10;;;;;;;6.72;1.67;;;2.40;99.90;;;;;;5086725;28;20068;-72
2022/01/21 08:50:36;;;;;;;7.63;1.38;;;1.40;99.90;;;;;;5095265;28;20041;-73
2022/01/21 08:55:46;;;;;;;8.02;1.63;;;1.50;99.90;;;;;;5098523;28;20099;-73
2022/01/21 08:58:12;;;;;;;12.93;2.83;;;1.50;99.90;;;;;;5099086;28;20036;-74
2022/01/21 09:00:38;;;;;;;12.52;1.65;;;1.50;99.90;;;;;;5097617;28;20138;-71
2022/01/21 09:03:03;;;;;;;6.18;1.67;;;1.60;99.90;;;;;;5098873;28;20054;-74
2022/01/21 09:05:29;;;;;;;7.72;2.08;;;1.70;99.90;;;;;;5098111;28;20054;-71
2022/01/21 09:07:55;;;;;;;8.10;1.63;;;1.60;99.90;;;;;;5097564;28;20069;-72
2022/01/21 09:10:20;;;;;;;5.65;1.85;;;1.80;99.90;;;;;;5098824;28;20043;-71
2022/01/21 09:12:46;;;;;;;7.72;1.40;;;1.90;99.90;;;;;;5098957;28;20533;-71
2022/01/21 09:15:12;;;;;;;11.57;2.42;;;2.10;99.90;;;;;;5097172;28;20100;-72
2022/01/21 09:17:39;;;;;;;7.45;2.17;;;2.00;99.90;;;;;;5097893;28;20071;-71
2022/01/21 09:20:05;;;;;;;11.13;1.80;;;2.00;99.90;;;;;;5099400;28;20067;-72
2022/01/21 09:22:31;;;;;;;7.97;1.55;;;2.10;99.90;;;;;;5098065;28;20055;-73
2022/01/21 09:24:57;;;;;;;4.35;1.50;;;2.10;99.90;;;;;;5097552;28;20062;-73
2022/01/21 09:27:23;;;;;;;5.57;2.03;;;2.10;99.90;;;;;;5098153;28;20100;-74
2022/01/21 09:29:48;;;;;;;7.10;1.63;;;2.10;99.90;;;;;;5098393;28;20605;-72
2022/01/21 09:32:15;;;;;;;5.88;2.20;;;2.10;99.90;;;;;;5106666;28;20158;-72
2022/01/21 09:34:41;;;;;;;5.32;1.30;;;2.60;99.90;;;;;;5078720;28;20063;-73
2022/01/21 09:37:06;;;;;;;10.57;1.63;;;2.40;99.90;;;;;;5089055;28;20032;-71
2022/01/21 09:39:32;;;;;;;6.20;1.60;;;2.20;99.90;;;;;;5097429;28;20040;-72
2022/01/21 09:42:01;;;;;;;11.32;1.80;;;2.30;99.90;;;;;;5098720;28;20047;-72
2022/01/21 09:44:28;;;;;;;4.82;1.60;;;2.40;99.90;;;;;;5097764;28;20099;-71
2022/01/21 09:46:58;;;;;;;6.25;1.45;;;2.40;99.90;;;;;;5097444;28;20407;-71
2022/01/21 09:49:26;;;;;;;7.22;1.65;;;2.60;99.90;;;;;;5098453;28;20059;-71
2022/01/21 09:51:57;;;;;;;12.38;2.85;;;2.40;99.90;;;;;;5097666;28;20044;-71
2022/01/21 09:54:24;;;;;;;6.53;1.70;;;2.50;99.90;;;;;;5098899;28;20048;-71
2022/01/21 09:56:53;;;;;;;8.23;1.92;;;2.50;99.90;;;;;;5095664;28;20052;-72
2022/01/21 09:59:21;;;;;;;7.55;1.67;;;2.60;99.90;;;;;;5098973;28;20044;-72
2022/01/21 10:01:50;;;;;;;6.70;2.28;;;2.70;99.90;;;;;;5097603;28;20036;-72
2022/01/21 10:04:18;;;;;;;9.27;2.78;;;2.70;99.90;;;;;;5097839;28;20039;-72
2022/01/21 10:06:47;;;;;;;8.88;2.25;;;2.90;99.90;;;;;;5098448;28;20211;-71
2022/01/21 10:09:20;;;;;;;10.68;1.88;;;2.80;99.90;;;;;;5097415;28;20128;-73
2022/01/21 10:11:49;;;;;;;8.57;1.77;;;2.90;99.90;;;;;;5098853;28;20040;-72
2022/01/21 10:14:16;;;;;;;6.65;1.75;;;2.90;99.90;;;;;;5098675;28;20130;-72
2022/01/21 10:16:43;;;;;;;8.98;2.10;;;3.00;99.90;;;;;;5100941;28;20287;-71
2022/01/21 10:19:11;;;;;;;7.78;1.88;;;3.00;99.90;;;;;;5101865;28;20071;-71
2022/01/21 10:21:44;;;;;;;10.48;2.00;;;3.10;99.90;;;;;;5101237;28;20051;-72
2022/01/21 10:24:13;;;;;;;12.00;1.98;;;3.10;99.90;;;;;;5101881;28;20052;-72
2022/01/21 10:26:50;;;;;;;9.48;2.40;;;3.20;99.90;;;;;;5101184;28;20048;-72
2022/01/21 10:29:16;;;;;;;11.00;2.38;;;3.20;99.90;;;;;;5120787;28;20052;-73
2022/01/21 10:31:59;;;;;;;8.40;2.30;;;3.20;99.90;;;;;;5121226;28;20058;-71
2022/01/21 10:34:34;;;;;;;8.57;2.03;;;3.20;99.90;;;;;;5121567;28;20055;-71
2022/01/21 10:37:10;;;;;;;12.15;2.83;;;3.30;99.90;;;;;;5121606;28;20056;-72
2022/01/21 10:39:58;;;;;;;11.05;2.58;;;3.40;99.90;;;;;;5120916;28;20043;-71
2022/01/21 10:42:25;;;;;;;6.72;2.15;;;3.50;99.90;;;;;;5121843;28;20077;-71
2022/01/21 10:44:51;;;;;;;9.50;2.08;;;3.70;99.90;;;;;;5121010;28;20126;-71
2022/01/21 10:47:18;;;;;;;7.57;2.38;;;3.50;99.90;;;;;;5121031;28;20066;-72
2022/01/21 10:50:06;;;;;;;9.93;2.08;;;3.70;99.90;;;;;;5122035;28;20043;-71
2022/01/21 10:52:43;;;;;;;8.07;2.33;;;3.50;99.90;;;;;;5120905;28;20039;-71
2022/01/21 10:55:34;;;;;;;10.85;2.22;;;3.50;99.90;;;;;;5112431;28;20047;-71
2022/01/21 10:58:03;;;;;;;11.10;2.08;;;3.40;99.90;;;;;;5081928;28;20053;-72
2022/01/21 11:00:29;;;;;;;15.35;2.88;;;3.40;99.90;;;;;;5080072;28;20052;-72
2022/01/21 11:02:54;;;;;;;14.05;2.25;;;3.70;99.90;;;;;;5099094;28;20051;-72
2022/01/21 11:05:20;;;;;;;9.35;2.63;;;3.50;99.90;;;;;;5100595;28;20100;-71
2022/01/21 11:07:47;;;;;;;12.70;2.95;;;3.60;99.90;;;;;;5101117;28;20071;-71
2022/01/21 11:10:31;;;;;;;13.15;2.20;;;3.60;99.90;;;;;;5100113;28;20127;-71
2022/01/21 11:13:01;;;;;;;8.43;2.08;;;3.60;99.90;;;;;;5100588;28;20374;-72
2022/01/21 11:15:38;;;;;;;12.43;2.47;;;3.70;99.90;;;;;;5100822;28;20109;-73
2022/01/21 11:18:06;;;;;;;10.93;3.50;;;3.70;99.90;;;;;;5099651;28;20070;-72
2022/01/21 11:20:36;;;;;;;8.90;2.83;;;3.70;99.90;;;;;;5101062;28;20036;-73
2022/01/21 11:23:02;;;;;;;9.93;2.67;;;3.70;99.90;;;;;;5100606;28;20099;-72
2022/01/21 11:25:48;;;;;;;9.05;2.08;;;3.90;99.90;;;;;;5100025;28;20126;-72
2022/01/21 11:28:19;;;;;;;8.97;3.07;;;3.90;99.90;;;;;;5107381;28;20059;-72
2022/01/21 11:30:46;;;;;;;9.15;2.47;;;4.10;99.90;;;;;;5119710;28;20560;-71
2022/01/21 11:33:12;;;;;;;6.10;1.70;;;3.80;99.90;;;;;;5104051;28;20070;-72
2022/01/21 11:35:38;;;;;;;12.60;1.92;;;4.10;99.90;;;;;;5099889;28;20052;-71
2022/01/21 11:38:09;;;;;;;8.38;1.58;;;4.10;99.90;;;;;;5100381;28;20044;-71
2022/01/21 11:40:36;;;;;;;9.90;2.67;;;4.00;99.90;;;;;;5100222;28;20079;-71
2022/01/21 11:43:03;;;;;;;8.18;2.33;;;4.00;99.90;;;;;;5099623;28;20051;-71
2022/01/21 11:50:45;;;;;;;8.98;2.40;;;4.20;99.90;;;;;;5100718;28;20052;-71
2022/01/21 11:53:12;;;;;;;9.02;2.53;;;4.20;99.90;;;;;;5100015;28;20526;-71
2022/01/21 11:55:40;;;;;;;14.52;2.58;;;4.30;99.90;;;;;;5112992;28;20047;-71
2022/01/21 11:58:18;;;;;;;18.10;2.65;;;4.70;99.90;;;;;;5120225;28;20039;-70
2022/01/21 12:00:45;;;;;;;8.60;2.10;;;4.50;99.90;;;;;;5119678;28;20037;-71
2022/01/21 12:03:11;;;;;;;11.98;2.28;;;4.60;99.90;;;;;;5119353;28;20043;-71
2022/01/21 12:05:37;;;;;;;11.00;2.35;;;4.70;99.90;;;;;;5112374;28;20051;-72
2022/01/21 12:08:04;;;;;;;11.65;2.20;;;4.60;99.90;;;;;;5088798;28;20530;-72
2022/01/21 12:10:44;;;;;;;8.82;2.13;;;4.60;99.90;;;;;;5099507;28;20048;-72
2022/01/21 12:13:17;;;;;;;8.98;2.58;;;4.60;99.90;;;;;;5098583;28;20059;-71
2022/01/21 12:19:25;;;;;;;10.65;2.70;;;4.60;99.90;;;;;;5099068;28;20560;-71
2022/01/21 12:21:44;;;;;;;9.88;2.22;;;4.60;99.90;;;;;;5097198;28;20127;-70
2022/01/21 12:24:11;;;;;;;10.60;2.35;;;4.70;99.90;;;;;;5099908;28;20051;-71
2022/01/21 12:26:54;;;;;;;12.20;2.35;;;4.70;99.90;;;;;;5098832;28;20036;-70
2022/01/21 12:29:23;;;;;;;20.52;2.90;;;4.70;99.90;;;;;;5115486;28;20051;-71
2022/01/21 12:31:54;;;;;;;13.57;3.85;;;4.80;99.90;;;;;;5114695;28;20040;-70
2022/01/21 12:34:20;;;;;;;17.23;3.22;;;4.80;99.90;;;;;;5098958;28;20063;-72
2022/01/21 12:36:51;;;;;;;9.02;3.05;;;4.90;99.90;;;;;;5097954;28;20054;-71
2022/01/21 12:39:37;;;;;;;12.43;2.60;;;4.90;99.90;;;;;;5098591;28;20093;-70
2022/01/21 12:42:21;;;;;;;10.85;2.40;;;5.00;99.90;;;;;;5099878;28;20031;-71
2022/01/21 12:44:48;;;;;;;13.40;4.10;;;5.10;99.90;;;;;;5099164;28;20075;-71
2022/01/21 12:47:36;;;;;;;8.63;2.67;;;5.10;99.90;;;;;;5097369;28;20048;-72
2022/01/21 12:50:21;;;;;;;11.52;2.85;;;5.10;99.90;;;;;;5099044;28;20044;-71
2022/01/21 12:52:50;;;;;;;13.30;2.67;;;5.30;99.90;;;;;;5098513;28;20553;-71
2022/01/21 12:58:16;;;;;;;7.70;2.55;;;5.30;99.90;;;;;;5098731;28;20052;-71
2022/01/21 13:00:42;;;;;;;9.05;3.20;;;5.30;99.90;;;;;;5098221;28;20043;-71
2022/01/21 13:03:25;;;;;;;13.75;2.80;;;5.30;99.90;;;;;;5099396;28;20058;-72
2022/01/21 13:06:12;;;;;;;10.18;2.20;;;5.30;99.90;;;;;;5098210;28;20055;-73
2022/01/21 13:08:58;;;;;;;15.55;3.58;;;5.30;99.90;;;;;;5098349;28;20052;-71
2022/01/21 13:11:25;;;;;;;12.80;2.65;;;5.30;99.90;;;;;;5099358;28;20063;-71
2022/01/21 13:14:34;;;;;;;7.25;1.90;;;5.30;99.90;;;;;;5096308;28;20049;-71
2022/01/21 13:17:13;;;;;;;7.55;2.03;;;5.40;99.90;;;;;;5097526;28;20047;-70
2022/01/21 13:19:50;;;;;;;8.50;2.30;;;5.40;99.90;;;;;;5098806;28;20466;-70
2022/01/21 13:22:30;;;;;;;7.25;1.77;;;5.40;99.90;;;;;;5098054;28;20046;-70
2022/01/21 13:25:05;;;;;;;12.82;2.22;;;5.50;99.90;;;;;;5098761;28;20105;-70
2022/01/21 13:27:33;;;;;;;10.95;2.10;;;5.50;99.90;;;;;;5098150;28;20089;-70
2022/01/21 13:30:05;;;;;;;7.95;1.50;;;5.60;99.90;;;;;;5118541;28;20079;-70
2022/01/21 13:32:31;;;;;;;4.57;1.80;;;5.60;99.90;;;;;;5118933;28;20211;-70
2022/01/21 13:35:14;;;;;;;11.50;3.13;;;5.60;99.90;;;;;;5118140;28;20087;-70
2022/01/21 13:37:58;;;;;;;12.77;1.95;;;5.70;99.90;;;;;;5118799;28;20048;-70
2022/01/21 13:40:24;;;;;;;11.40;2.05;;;5.70;99.90;;;;;;5118208;28;20040;-70
2022/01/21 13:42:50;;;;;;;25.13;3.97;;;5.70;99.90;;;;;;5117657;28;20578;-70
2022/01/21 13:45:16;;;;;;;5.97;1.45;;;5.80;99.90;;;;;;5116272;28;20067;-70
2022/01/21 13:47:46;;;;;;;7.57;1.65;;;5.80;99.90;;;;;;5117213;28;20050;-69
2022/01/21 13:50:17;;;;;;;12.77;2.63;;;5.80;99.90;;;;;;5122495;27;20050;-70
2022/01/21 13:52:55;;;;;;;9.30;1.90;;;5.80;99.90;;;;;;5121376;28;20401;-70
2022/01/21 13:55:46;;;;;;;5.55;1.75;;;5.70;99.90;;;;;;5122080;28;20036;-70
2022/01/21 13:58:22;;;;;;;13.95;2.42;;;5.70;99.90;;;;;;5113119;28;20051;-69
2022/01/21 14:01:01;;;;;;;9.98;2.08;;;5.70;99.90;;;;;;5090754;28;20055;-70
2022/01/21 14:03:29;;;;;;;13.25;2.30;;;5.80;99.90;;;;;;5102400;28;20044;-69
2022/01/21 14:05:59;;;;;;;9.75;2.60;;;5.80;99.90;;;;;;5092607;28;20044;-70